Time;durP1;ratioP1;P1;durP2;ratioP2;P2;SDS_P1;SDS_P2;PMS_P1;PMS_P2;Temp;Humidity;BMP_temperature;BMP_pressure;BME280_temperature;BME280_humidity;BME280_pressure;Samples;Min_cycle;Max_cycle;Signal;HPM_P1;HPM_P2
2023/04/16 00:02:19;;;;;;;10.70;6.75;;;;;;;;;;4942153;29;20077;-78
2023/04/16 00:04:45;;;;;;;8.48;6.13;;;;;;;;;;4942400;29;20024;-79
2023/04/16 00:07:11;;;;;;;9.32;6.53;;;;;;;;;;4941980;29;20024;-79
2023/04/16 00:09:38;;;;;;;9.93;5.88;;;;;;;;;;4942101;29;20042;-79
2023/04/16 00:12:05;;;;;;;8.63;6.15;;;;;;;;;;4941009;29;20123;-79
2023/04/16 00:14:31;;;;;;;9.40;6.57;;;;;;;;;;4943352;29;20046;-78
2023/04/16 00:16:57;;;;;;;10.80;5.68;;;;;;;;;;4961051;29;20030;-78
2023/04/16 00:19:23;;;;;;;9.00;5.85;;;;;;;;;;4961238;29;20015;-78
2023/04/16 00:21:49;;;;;;;7.60;6.20;;;;;;;;;;4957176;29;20424;-78
2023/04/16 00:24:15;;;;;;;8.75;5.97;;;;;;;;;;4941862;29;20339;-78
2023/04/16 00:26:43;;;;;;;6.65;5.95;;;;;;;;;;4941627;29;20153;-79
2023/04/16 00:29:09;;;;;;;7.30;5.82;;;;;;;;;;4941258;29;20042;-78
2023/04/16 00:31:36;;;;;;;8.30;6.13;;;;;;;;;;4940589;29;20020;-79
2023/04/16 00:34:02;;;;;;;8.05;5.78;;;;;;;;;;4941124;29;20032;-78
2023/04/16 00:36:28;;;;;;;7.95;5.72;;;;;;;;;;4941334;29;20119;-78
2023/04/16 00:38:55;;;;;;;7.75;5.75;;;;;;;;;;4940439;29;20040;-78
2023/04/16 00:41:21;;;;;;;8.98;6.38;;;;;;;;;;4941407;29;20043;-78
2023/04/16 00:43:48;;;;;;;8.98;6.43;;;;;;;;;;4941400;29;20027;-79
2023/04/16 00:46:15;;;;;;;7.30;5.75;;;;;;;;;;4941416;29;20107;-78
2023/04/16 00:48:41;;;;;;;6.40;5.38;;;;;;;;;;4940199;29;20118;-79
2023/04/16 00:51:08;;;;;;;8.48;5.35;;;;;;;;;;4941217;29;20418;-79
2023/04/16 00:53:34;;;;;;;8.50;5.35;;;;;;;;;;4941315;29;20032;-79
2023/04/16 00:56:05;;;;;;;8.25;6.10;;;;;;;;;;4941225;29;20411;-79
2023/04/16 00:58:31;;;;;;;8.70;5.93;;;;;;;;;;4940137;29;20063;-79
2023/04/16 01:00:57;;;;;;;8.25;6.20;;;;;;;;;;4941425;29;20031;-79
2023/04/16 01:03:28;;;;;;;9.85;5.97;;;;;;;;;;4940049;29;20075;-80
2023/04/16 01:05:55;;;;;;;8.43;6.20;;;;;;;;;;4941078;29;20031;-79
2023/04/16 01:08:21;;;;;;;9.20;6.05;;;;;;;;;;4940910;29;20035;-79
2023/04/16 01:10:47;;;;;;;9.60;6.05;;;;;;;;;;4940869;29;20035;-80
2023/04/16 01:13:14;;;;;;;8.50;6.38;;;;;;;;;;4949178;29;20152;-79
2023/04/16 01:15:40;;;;;;;10.50;6.15;;;;;;;;;;4959847;29;20019;-79
2023/04/16 01:18:19;;;;;;;6.75;6.00;;;;;;;;;;4958942;29;20034;-78
2023/04/16 01:20:48;;;;;;;7.22;6.30;;;;;;;;;;4960159;29;20075;-79
2023/04/16 01:23:17;;;;;;;8.38;6.25;;;;;;;;;;4959259;29;20195;-79
2023/04/16 01:25:43;;;;;;;8.13;5.93;;;;;;;;;;4959805;29;20028;-79
2023/04/16 01:28:09;;;;;;;7.80;6.20;;;;;;;;;;4958336;29;20039;-79
2023/04/16 01:30:35;;;;;;;11.07;6.72;;;;;;;;;;4960010;29;20090;-78
2023/04/16 01:33:02;;;;;;;8.55;6.57;;;;;;;;;;4959339;29;20034;-78
2023/04/16 01:35:28;;;;;;;7.28;6.07;;;;;;;;;;4959682;29;20031;-78
2023/04/16 01:37:54;;;;;;;8.50;6.30;;;;;;;;;;4959795;29;20035;-78
2023/04/16 01:40:20;;;;;;;9.10;6.40;;;;;;;;;;4959584;28;20122;-79
2023/04/16 01:42:46;;;;;;;8.25;6.10;;;;;;;;;;4959694;29;20023;-79
2023/04/16 01:45:12;;;;;;;8.13;5.78;;;;;;;;;;4959703;29;20035;-79
2023/04/16 01:47:38;;;;;;;8.73;5.85;;;;;;;;;;4958383;29;20457;-79
2023/04/16 01:50:04;;;;;;;8.10;6.30;;;;;;;;;;4959410;29;20406;-79
2023/04/16 01:52:31;;;;;;;10.07;6.07;;;;;;;;;;4957958;29;20031;-79
2023/04/16 01:54:57;;;;;;;9.82;7.03;;;;;;;;;;4959575;29;20050;-79
2023/04/16 01:57:23;;;;;;;7.28;5.82;;;;;;;;;;4959262;29;20338;-79
2023/04/16 01:59:49;;;;;;;8.00;6.07;;;;;;;;;;4959732;29;20321;-79
2023/04/16 02:02:15;;;;;;;7.28;5.88;;;;;;;;;;4958167;29;20506;-79
2023/04/16 02:04:43;;;;;;;7.28;5.93;;;;;;;;;;4959382;29;20031;-79
2023/04/16 02:07:09;;;;;;;8.52;6.38;;;;;;;;;;4958969;28;20046;-79
2023/04/16 02:09:36;;;;;;;9.32;6.32;;;;;;;;;;4957489;29;20031;-79
2023/04/16 02:12:02;;;;;;;8.15;6.20;;;;;;;;;;4959061;29;20410;-80
2023/04/16 02:14:28;;;;;;;7.72;5.80;;;;;;;;;;4939971;29;20426;-79
2023/04/16 02:16:54;;;;;;;9.48;6.43;;;;;;;;;;4939930;29;20024;-79
2023/04/16 02:19:22;;;;;;;10.25;7.15;;;;;;;;;;4939923;29;20055;-78
2023/04/16 02:21:48;;;;;;;11.77;7.95;;;;;;;;;;4939472;29;20095;-79
2023/04/16 02:24:14;;;;;;;13.35;9.18;;;;;;;;;;4939837;29;20119;-79
2023/04/16 02:26:40;;;;;;;20.80;17.15;;;;;;;;;;4938778;29;20036;-78
2023/04/16 02:29:06;;;;;;;20.35;15.43;;;;;;;;;;4939634;29;20032;-78
2023/04/16 02:31:32;;;;;;;20.73;16.23;;;;;;;;;;4938629;29;20024;-78
2023/04/16 02:33:58;;;;;;;15.48;11.93;;;;;;;;;;4939441;29;20074;-78
2023/04/16 02:36:26;;;;;;;15.35;10.65;;;;;;;;;;4939593;29;20039;-79
2023/04/16 02:38:52;;;;;;;16.42;8.02;;;;;;;;;;4938517;29;20050;-79
2023/04/16 02:41:18;;;;;;;12.15;7.90;;;;;;;;;;4938505;29;20434;-79
2023/04/16 02:43:44;;;;;;;11.82;6.97;;;;;;;;;;4939606;29;20032;-78
2023/04/16 02:46:10;;;;;;;33.83;15.50;;;;;;;;;;4939714;29;20323;-79
2023/04/16 02:48:36;;;;;;;66.55;26.67;;;;;;;;;;4938448;29;20070;-79
2023/04/16 02:51:02;;;;;;;46.88;18.73;;;;;;;;;;4941017;29;20062;-79
2023/04/16 02:53:29;;;;;;;31.55;12.82;;;;;;;;;;4943385;29;20046;-79
2023/04/16 02:55:55;;;;;;;9.00;5.53;;;;;;;;;;4943422;29;20023;-79
2023/04/16 02:58:23;;;;;;;12.15;6.28;;;;;;;;;;4943327;29;20299;-79
2023/04/16 03:00:49;;;;;;;8.43;6.00;;;;;;;;;;4943441;29;20028;-79
2023/04/16 03:03:15;;;;;;;12.07;6.93;;;;;;;;;;4943209;29;20047;-79
2023/04/16 03:05:41;;;;;;;16.10;7.88;;;;;;;;;;4942256;29;20031;-79
2023/04/16 03:08:08;;;;;;;9.95;6.68;;;;;;;;;;4943059;29;20132;-79
2023/04/16 03:10:35;;;;;;;11.68;6.38;;;;;;;;;;4943133;29;20024;-79
2023/04/16 03:13:01;;;;;;;7.88;5.95;;;;;;;;;;4943125;29;20031;-79
2023/04/16 03:15:27;;;;;;;8.25;5.30;;;;;;;;;;4942639;29;20034;-79
2023/04/16 03:17:53;;;;;;;7.93;5.68;;;;;;;;;;4942918;29;20027;-79
2023/04/16 03:20:19;;;;;;;11.07;6.50;;;;;;;;;;4943097;29;20051;-79
2023/04/16 03:22:46;;;;;;;7.05;5.10;;;;;;;;;;4942710;29;20051;-79
2023/04/16 03:25:12;;;;;;;9.10;5.30;;;;;;;;;;4942986;29;20170;-79
2023/04/16 03:27:38;;;;;;;7.85;5.35;;;;;;;;;;4942754;29;20034;-79
2023/04/16 03:30:10;;;;;;;7.35;5.72;;;;;;;;;;4943020;29;20028;-79
2023/04/16 03:32:37;;;;;;;9.55;5.68;;;;;;;;;;4942072;29;20040;-79
2023/04/16 03:35:03;;;;;;;8.85;6.32;;;;;;;;;;4942931;29;20161;-79
2023/04/16 03:37:29;;;;;;;13.38;6.80;;;;;;;;;;4942723;29;20115;-79
2023/04/16 03:39:55;;;;;;;11.00;6.07;;;;;;;;;;4942706;29;20091;-79
2023/04/16 03:42:21;;;;;;;13.02;6.60;;;;;;;;;;4942576;29;20027;-80
2023/04/16 03:44:47;;;;;;;8.60;6.05;;;;;;;;;;4942747;29;20103;-79
2023/04/16 03:47:13;;;;;;;8.68;6.00;;;;;;;;;;4942546;29;20051;-78
2023/04/16 03:49:39;;;;;;;9.80;6.07;;;;;;;;;;4941331;29;20020;-79
2023/04/16 03:52:05;;;;;;;8.80;6.05;;;;;;;;;;4959579;29;20039;-79
2023/04/16 03:54:31;;;;;;;9.25;6.63;;;;;;;;;;4961458;29;20153;-79
2023/04/16 03:56:58;;;;;;;10.07;6.18;;;;;;;;;;4961263;29;20035;-79
2023/04/16 03:59:24;;;;;;;9.45;5.85;;;;;;;;;;4961750;29;20351;-80
2023/04/16 04:01:50;;;;;;;7.85;5.70;;;;;;;;;;4960606;28;20322;-79
2023/04/16 04:04:16;;;;;;;9.40;6.28;;;;;;;;;;4961265;29;20115;-79
2023/04/16 04:06:42;;;;;;;8.80;5.68;;;;;;;;;;4960327;29;20027;-79
2023/04/16 04:09:08;;;;;;;11.45;6.97;;;;;;;;;;4959758;28;20035;-80
2023/04/16 04:11:34;;;;;;;8.88;6.25;;;;;;;;;;4960991;29;20418;-79
2023/04/16 04:14:00;;;;;;;10.13;6.35;;;;;;;;;;4954097;29;20016;-79
2023/04/16 04:16:26;;;;;;;11.02;6.80;;;;;;;;;;4941939;29;20032;-80
2023/04/16 04:18:54;;;;;;;11.65;7.93;;;;;;;;;;4940615;29;20034;-80
2023/04/16 04:21:20;;;;;;;11.25;9.13;;;;;;;;;;4941654;29;20435;-80
2023/04/16 04:23:46;;;;;;;11.82;7.53;;;;;;;;;;4940370;29;20048;-80
2023/04/16 04:26:12;;;;;;;10.93;6.75;;;;;;;;;;4941438;29;20027;-80
2023/04/16 04:28:38;;;;;;;7.75;6.15;;;;;;;;;;4941538;29;20106;-80
2023/04/16 04:31:04;;;;;;;9.30;6.57;;;;;;;;;;4941269;29;20483;-79
2023/04/16 04:33:30;;;;;;;12.82;7.00;;;;;;;;;;4941163;29;20119;-78
2023/04/16 04:35:56;;;;;;;10.07;7.30;;;;;;;;;;4941586;29;20028;-78
2023/04/16 04:38:24;;;;;;;10.05;7.80;;;;;;;;;;4940523;29;20032;-78
2023/04/16 04:40:53;;;;;;;15.07;11.65;;;;;;;;;;4939237;29;20468;-79
2023/04/16 04:43:20;;;;;;;13.57;9.70;;;;;;;;;;4941674;29;20028;-79
2023/04/16 04:45:47;;;;;;;12.73;9.13;;;;;;;;;;4940614;29;20032;-79
2023/04/16 04:48:13;;;;;;;12.45;7.90;;;;;;;;;;4941183;29;20028;-79
2023/04/16 04:50:40;;;;;;;9.70;7.05;;;;;;;;;;4940284;29;20415;-79
2023/04/16 04:53:09;;;;;;;13.57;7.85;;;;;;;;;;4941330;29;20024;-79
2023/04/16 04:55:38;;;;;;;14.55;9.65;;;;;;;;;;4940102;29;20394;-80
2023/04/16 04:58:08;;;;;;;15.85;11.55;;;;;;;;;;4941187;29;20078;-80
2023/04/16 05:00:35;;;;;;;18.60;11.63;;;;;;;;;;4941209;29;20035;-79
2023/04/16 05:03:02;;;;;;;15.05;9.90;;;;;;;;;;4953606;29;20114;-79
2023/04/16 05:05:28;;;;;;;12.18;8.52;;;;;;;;;;4960431;29;20023;-79
2023/04/16 05:07:54;;;;;;;12.18;8.85;;;;;;;;;;4953476;28;20070;-79
2023/04/16 05:10:20;;;;;;;12.85;8.07;;;;;;;;;;4940896;29;20024;-80
2023/04/16 05:12:47;;;;;;;11.20;7.18;;;;;;;;;;4962758;28;20039;-79
2023/04/16 05:15:13;;;;;;;10.43;8.25;;;;;;;;;;4940338;29;20027;-79
2023/04/16 05:17:39;;;;;;;12.45;8.07;;;;;;;;;;4940180;29;20034;-79
2023/04/16 05:20:06;;;;;;;11.93;7.95;;;;;;;;;;4940612;29;20036;-80
2023/04/16 05:22:32;;;;;;;12.05;9.02;;;;;;;;;;4940512;29;20047;-79
2023/04/16 05:24:58;;;;;;;10.73;6.85;;;;;;;;;;4940732;29;20031;-79
2023/04/16 05:27:24;;;;;;;9.48;6.85;;;;;;;;;;4941293;29;20044;-79
2023/04/16 05:29:50;;;;;;;10.85;7.18;;;;;;;;;;4941796;29;20038;-79
2023/04/16 05:32:16;;;;;;;11.45;7.30;;;;;;;;;;4944718;29;20016;-78
2023/04/16 05:34:42;;;;;;;10.15;7.43;;;;;;;;;;4940491;29;20047;-79
2023/04/16 05:37:08;;;;;;;11.73;8.02;;;;;;;;;;4940606;29;20024;-78
2023/04/16 05:39:34;;;;;;;15.07;10.75;;;;;;;;;;4947515;29;20028;-78
2023/04/16 05:42:01;;;;;;;10.10;7.10;;;;;;;;;;4940293;29;20019;-78
2023/04/16 05:44:27;;;;;;;10.95;6.70;;;;;;;;;;4940345;29;20396;-78
2023/04/16 05:46:53;;;;;;;8.90;6.50;;;;;;;;;;4941117;29;20090;-78
2023/04/16 05:49:19;;;;;;;9.93;6.40;;;;;;;;;;4939126;29;20047;-78
2023/04/16 05:51:45;;;;;;;10.00;6.15;;;;;;;;;;4940150;29;20020;-78
2023/04/16 05:54:11;;;;;;;11.45;7.25;;;;;;;;;;4939602;29;20032;-79
2023/04/16 05:56:37;;;;;;;11.02;8.15;;;;;;;;;;4939423;29;20052;-78
2023/04/16 05:59:03;;;;;;;13.65;8.50;;;;;;;;;;4939749;29;20418;-78
2023/04/16 06:01:29;;;;;;;14.05;9.88;;;;;;;;;;4938857;29;20054;-78
2023/04/16 06:03:55;;;;;;;10.50;7.78;;;;;;;;;;4939786;29;20042;-78
2023/04/16 06:06:21;;;;;;;9.70;7.32;;;;;;;;;;4939982;29;20024;-79
2023/04/16 06:08:47;;;;;;;12.00;7.63;;;;;;;;;;4939545;29;20035;-79
2023/04/16 06:11:13;;;;;;;14.77;7.82;;;;;;;;;;4939412;29;20023;-79
2023/04/16 06:13:39;;;;;;;10.18;6.50;;;;;;;;;;4949530;29;20023;-79
2023/04/16 06:16:06;;;;;;;10.13;6.75;;;;;;;;;;4940259;29;20035;-78
2023/04/16 06:18:32;;;;;;;8.73;6.47;;;;;;;;;;4938454;29;20039;-78
2023/04/16 06:20:58;;;;;;;9.88;6.82;;;;;;;;;;4938140;29;20079;-78
2023/04/16 06:23:24;;;;;;;8.88;6.07;;;;;;;;;;4938922;29;20047;-78
2023/04/16 06:25:50;;;;;;;7.90;6.43;;;;;;;;;;4920294;29;20032;-78
2023/04/16 06:28:16;;;;;;;11.80;6.72;;;;;;;;;;4945435;28;20035;-77
2023/04/16 06:30:42;;;;;;;10.93;6.78;;;;;;;;;;4939607;29;20023;-78
2023/04/16 06:33:08;;;;;;;8.50;6.72;;;;;;;;;;4939217;29;20410;-79
2023/04/16 06:35:35;;;;;;;11.00;6.88;;;;;;;;;;4939621;29;20065;-79
2023/04/16 06:38:01;;;;;;;8.65;6.93;;;;;;;;;;4941442;29;20036;-80
2023/04/16 06:40:27;;;;;;;9.52;6.78;;;;;;;;;;4941454;29;20032;-78
2023/04/16 06:42:53;;;;;;;9.85;6.82;;;;;;;;;;4938606;29;20039;-78
2023/04/16 06:45:19;;;;;;;9.95;6.80;;;;;;;;;;4939153;29;20486;-78
2023/04/16 06:47:46;;;;;;;9.38;6.22;;;;;;;;;;4939394;29;20035;-78
2023/04/16 06:50:12;;;;;;;13.07;6.93;;;;;;;;;;4939118;29;20027;-77
2023/04/16 06:52:38;;;;;;;10.93;6.40;;;;;;;;;;4939941;29;20150;-78
2023/04/16 06:55:07;;;;;;;10.13;6.78;;;;;;;;;;4945971;29;20023;-80
2023/04/16 06:57:33;;;;;;;9.65;6.82;;;;;;;;;;4939567;29;20110;-80
2023/04/16 06:59:59;;;;;;;10.80;7.13;;;;;;;;;;4938095;29;20032;-80
2023/04/16 07:02:25;;;;;;;12.68;7.70;;;;;;;;;;4938986;29;20039;-79
2023/04/16 07:04:51;;;;;;;13.07;8.55;;;;;;;;;;4939211;29;20426;-80
2023/04/16 07:07:18;;;;;;;14.80;7.55;;;;;;;;;;4940771;28;20668;-83
2023/04/16 07:09:44;;;;;;;14.70;8.07;;;;;;;;;;4938483;29;20024;-81
2023/04/16 07:12:10;;;;;;;11.15;8.30;;;;;;;;;;4939217;29;20038;-82
2023/04/16 07:14:36;;;;;;;13.75;8.10;;;;;;;;;;4938959;29;20070;-86
2023/04/16 07:17:02;;;;;;;10.07;8.00;;;;;;;;;;4945126;29;20031;-89
2023/04/16 07:19:31;;;;;;;14.07;7.75;;;;;;;;;;4949938;29;20206;-92
2023/04/16 07:21:57;;;;;;;11.32;7.13;;;;;;;;;;4938547;29;20054;-89
2023/04/16 07:24:23;;;;;;;21.45;13.13;;;;;;;;;;4939498;29;20040;-90
2023/04/16 07:26:49;;;;;;;16.08;10.77;;;;;;;;;;4954625;29;20031;-81
2023/04/16 07:29:15;;;;;;;15.13;11.63;;;;;;;;;;4958547;28;20032;-81
2023/04/16 07:31:41;;;;;;;13.13;8.50;;;;;;;;;;4957411;29;20094;-81
2023/04/16 07:34:08;;;;;;;13.25;8.25;;;;;;;;;;4958208;29;20110;-81
2023/04/16 07:36:34;;;;;;;13.80;8.48;;;;;;;;;;4959060;28;20034;-81
2023/04/16 07:39:00;;;;;;;15.18;8.63;;;;;;;;;;4961628;29;20039;-81
2023/04/16 07:41:26;;;;;;;14.25;8.60;;;;;;;;;;4960718;29;20031;-81
2023/04/16 07:43:52;;;;;;;15.52;9.50;;;;;;;;;;4960742;29;20023;-81
2023/04/16 07:46:18;;;;;;;14.65;9.77;;;;;;;;;;4961663;29;20039;-81
2023/04/16 07:48:45;;;;;;;16.58;10.82;;;;;;;;;;4961597;29;20498;-80
2023/04/16 07:51:11;;;;;;;14.50;10.02;;;;;;;;;;4960401;29;20114;-80
2023/04/16 07:53:37;;;;;;;13.70;9.75;;;;;;;;;;4961666;28;20110;-81
2023/04/16 07:56:03;;;;;;;16.10;9.80;;;;;;;;;;4961254;29;20382;-81
2023/04/16 07:58:29;;;;;;;16.45;10.00;;;;;;;;;;4961464;29;20032;-81
2023/04/16 08:00:55;;;;;;;16.02;11.13;;;;;;;;;;4961544;28;20023;-81
2023/04/16 08:03:22;;;;;;;20.63;11.80;;;;;;;;;;4961404;28;20027;-81
2023/04/16 08:05:48;;;;;;;16.98;11.35;;;;;;;;;;4961584;28;20428;-81
2023/04/16 08:08:14;;;;;;;17.08;11.70;;;;;;;;;;4959872;28;20043;-81
2023/04/16 08:10:40;;;;;;;15.88;11.07;;;;;;;;;;4961340;28;20070;-81
2023/04/16 08:13:06;;;;;;;24.13;12.68;;;;;;;;;;4961183;28;20027;-81
2023/04/16 08:15:32;;;;;;;17.50;11.27;;;;;;;;;;4961356;28;20046;-81
2023/04/16 08:17:58;;;;;;;18.02;11.57;;;;;;;;;;4961146;28;20031;-81
2023/04/16 08:20:25;;;;;;;21.40;12.68;;;;;;;;;;4961268;28;20031;-81
2023/04/16 08:22:52;;;;;;;23.80;12.40;;;;;;;;;;4959468;28;20079;-81
2023/04/16 08:25:19;;;;;;;21.23;13.18;;;;;;;;;;4961249;28;20058;-81
2023/04/16 08:27:45;;;;;;;19.95;12.73;;;;;;;;;;4959583;29;20035;-81
2023/04/16 08:30:11;;;;;;;15.05;10.48;;;;;;;;;;4960993;28;20457;-81
2023/04/16 08:32:38;;;;;;;17.40;11.68;;;;;;;;;;4960006;28;20023;-81
2023/04/16 08:35:04;;;;;;;20.48;12.57;;;;;;;;;;4960990;28;20132;-81
2023/04/16 08:37:30;;;;;;;20.58;12.15;;;;;;;;;;4960837;28;20030;-81
2023/04/16 08:39:56;;;;;;;21.60;12.40;;;;;;;;;;4960769;28;20027;-81
2023/04/16 08:42:31;;;;;;;17.58;10.75;;;;;;;;;;4960630;28;20066;-81
2023/04/16 08:45:10;;;;;;;15.48;11.20;;;;;;;;;;4960731;28;20402;-81
2023/04/16 08:47:36;;;;;;;15.63;10.95;;;;;;;;;;4960658;28;20136;-81
2023/04/16 08:50:05;;;;;;;15.45;11.38;;;;;;;;;;4960011;28;20414;-81
2023/04/16 08:52:31;;;;;;;17.90;11.73;;;;;;;;;;4960823;28;20158;-81
2023/04/16 08:55:08;;;;;;;20.30;12.60;;;;;;;;;;4960570;28;20158;-81
2023/04/16 08:57:42;;;;;;;17.42;12.05;;;;;;;;;;4960322;28;20465;-81
2023/04/16 09:00:09;;;;;;;17.73;12.70;;;;;;;;;;4960356;28;20028;-80
2023/04/16 09:02:35;;;;;;;20.65;12.32;;;;;;;;;;4959530;28;20034;-81
2023/04/16 09:05:03;;;;;;;20.98;12.35;;;;;;;;;;4959127;29;20031;-81
2023/04/16 09:07:29;;;;;;;18.13;11.68;;;;;;;;;;4959114;28;20035;-81
2023/04/16 09:09:55;;;;;;;23.48;13.48;;;;;;;;;;4960252;28;20059;-81
2023/04/16 09:12:25;;;;;;;15.43;12.45;;;;;;;;;;4958816;29;20326;-81
2023/04/16 09:14:51;;;;;;;16.85;11.18;;;;;;;;;;4960248;28;20303;-80
2023/04/16 09:17:20;;;;;;;16.35;11.25;;;;;;;;;;4960246;28;20106;-80
2023/04/16 09:19:46;;;;;;;19.95;12.45;;;;;;;;;;4960077;28;20023;-81
2023/04/16 09:22:12;;;;;;;17.30;11.32;;;;;;;;;;4959759;28;20039;-80
2023/04/16 09:24:39;;;;;;;19.55;11.50;;;;;;;;;;4959866;28;20027;-80
2023/04/16 09:27:05;;;;;;;17.90;12.25;;;;;;;;;;4960045;28;20026;-81
2023/04/16 09:29:37;;;;;;;16.75;10.70;;;;;;;;;;4959946;28;20031;-81
2023/04/16 09:32:08;;;;;;;14.90;10.05;;;;;;;;;;4959956;28;20024;-80
2023/04/16 09:34:34;;;;;;;13.77;9.68;;;;;;;;;;4959788;28;20023;-80
2023/04/16 09:37:16;;;;;;;13.85;8.98;;;;;;;;;;4959754;29;20015;-80
2023/04/16 09:39:42;;;;;;;12.27;8.80;;;;;;;;;;4959800;29;20023;-80
2023/04/16 09:42:09;;;;;;;18.10;10.15;;;;;;;;;;4959594;29;20023;-80
2023/04/16 09:44:36;;;;;;;16.90;10.57;;;;;;;;;;4959677;28;20027;-80
2023/04/16 09:47:06;;;;;;;8.45;6.15;;;;;;;;;;4958483;29;20059;-81
2023/04/16 09:49:35;;;;;;;10.10;5.97;;;;;;;;;;4959364;29;20110;-80
2023/04/16 09:52:01;;;;;;;7.95;5.85;;;;;;;;;;4959031;29;20031;-80
2023/04/16 09:54:27;;;;;;;11.50;6.40;;;;;;;;;;4959231;29;20031;-80
2023/04/16 09:56:56;;;;;;;7.63;3.92;;;;;;;;;;4959547;29;20027;-80
2023/04/16 09:59:23;;;;;;;6.50;3.30;;;;;;;;;;4958065;28;20031;-80
2023/04/16 10:01:51;;;;;;;8.40;3.50;;;;;;;;;;4958664;29;20035;-80
2023/04/16 10:04:18;;;;;;;5.85;3.45;;;;;;;;;;4958185;29;20031;-81
2023/04/16 10:06:47;;;;;;;5.55;3.22;;;;;;;;;;4959252;29;20027;-80
2023/04/16 10:09:13;;;;;;;5.55;2.88;;;;;;;;;;4955262;28;20029;-81
2023/04/16 10:11:39;;;;;;;5.55;2.83;;;;;;;;;;4939164;29;20032;-80
2023/04/16 10:14:05;;;;;;;9.50;3.70;;;;;;;;;;4939416;29;20023;-80
2023/04/16 10:16:31;;;;;;;6.70;4.18;;;;;;;;;;4938341;29;20062;-80
2023/04/16 10:18:58;;;;;;;19.83;9.95;;;;;;;;;;4938024;29;20367;-80
2023/04/16 10:21:25;;;;;;;7.63;3.65;;;;;;;;;;4938999;29;20468;-75
2023/04/16 10:23:53;;;;;;;4.40;3.33;;;;;;;;;;4920869;29;20064;-75
2023/04/16 10:26:19;;;;;;;7.03;3.72;;;;;;;;;;4904255;29;20044;-75
2023/04/16 10:28:45;;;;;;;8.05;4.55;;;;;;;;;;4920441;29;20330;-75
2023/04/16 10:31:12;;;;;;;9.15;4.60;;;;;;;;;;4920426;29;20032;-75
2023/04/16 10:33:41;;;;;;;6.60;3.55;;;;;;;;;;4920315;29;20043;-76
2023/04/16 10:36:10;;;;;;;7.72;5.40;;;;;;;;;;4920048;29;20103;-75
2023/04/16 10:39:00;;;;;;;8.23;4.75;;;;;;;;;;4920431;29;20079;-75
2023/04/16 10:41:26;;;;;;;10.75;4.82;;;;;;;;;;4840793;29;20041;-75
2023/04/16 10:43:53;;;;;;;13.60;6.13;;;;;;;;;;4845099;29;20121;-75
2023/04/16 10:46:19;;;;;;;16.65;7.20;;;;;;;;;;4843658;29;20455;-75
2023/04/16 10:48:46;;;;;;;7.68;3.70;;;;;;;;;;4845078;29;20034;-75
2023/04/16 10:51:24;;;;;;;8.18;4.57;;;;;;;;;;4846915;29;20026;-76
2023/04/16 10:53:53;;;;;;;7.00;3.95;;;;;;;;;;4847277;29;20112;-76
2023/04/16 10:56:26;;;;;;;6.38;3.45;;;;;;;;;;4843965;29;20167;-76
2023/04/16 10:58:54;;;;;;;6.10;2.70;;;;;;;;;;4844076;29;20069;-75
2023/04/16 11:01:26;;;;;;;5.07;3.03;;;;;;;;;;4839667;29;20060;-76
2023/04/16 11:03:52;;;;;;;;;;;;;;;;;;4836559;29;20161;-75
2023/04/16 11:06:24;;;;;;;5.38;3.05;;;;;;;;;;4840092;29;19950;-75
2023/04/16 11:08:51;;;;;;;7.05;3.13;;;;;;;;;;4838218;29;20065;-75
2023/04/16 11:11:17;;;;;;;4.38;1.95;;;;;;;;;;4843275;29;20125;-76
2023/04/16 11:13:47;;;;;;;4.03;2.33;;;;;;;;;;4847595;29;20026;-75
2023/04/16 11:16:14;;;;;;;2.88;1.73;;;;;;;;;;4846375;29;20064;-75
2023/04/16 11:18:40;;;;;;;2.97;2.33;;;;;;;;;;4899005;29;20050;-75
2023/04/16 11:21:11;;;;;;;5.75;3.40;;;;;;;;;;4908590;29;20092;-75
2023/04/16 11:23:50;;;;;;;6.75;2.20;;;;;;;;;;4940549;29;20629;-75
2023/04/16 11:26:22;;;;;;;4.95;2.10;;;;;;;;;;4946162;29;20027;-80
2023/04/16 11:28:48;;;;;;;5.43;2.88;;;;;;;;;;4942364;29;20154;-80
2023/04/16 11:31:14;;;;;;;3.85;2.47;;;;;;;;;;4949026;29;20032;-80
2023/04/16 11:33:42;;;;;;;8.02;2.83;;;;;;;;;;4941049;29;20338;-80
2023/04/16 11:36:08;;;;;;;5.55;3.53;;;;;;;;;;4942932;29;20046;-80
2023/04/16 11:38:39;;;;;;;3.53;2.28;;;;;;;;;;4940676;29;20035;-80
2023/04/16 11:41:05;;;;;;;5.18;2.95;;;;;;;;;;4942673;29;20489;-81
2023/04/16 11:43:32;;;;;;;6.65;3.45;;;;;;;;;;4942866;29;20035;-81
2023/04/16 11:45:59;;;;;;;5.68;2.20;;;;;;;;;;4973713;28;20028;-81
2023/04/16 11:48:25;;;;;;;3.47;1.98;;;;;;;;;;4942447;29;20028;-80
2023/04/16 11:50:57;;;;;;;4.43;2.00;;;;;;;;;;4945539;29;20472;-81
2023/04/16 11:53:23;;;;;;;6.63;2.13;;;;;;;;;;4930659;29;20066;-81
2023/04/16 11:55:49;;;;;;;5.20;2.90;;;;;;;;;;4923485;29;20036;-81
2023/04/16 11:58:16;;;;;;;4.78;1.80;;;;;;;;;;4941450;29;20367;-80
2023/04/16 12:00:42;;;;;;;3.67;1.92;;;;;;;;;;4942081;29;20048;-80
2023/04/16 12:03:08;;;;;;;4.90;2.30;;;;;;;;;;4973186;28;20046;-81
2023/04/16 12:05:37;;;;;;;2.85;1.27;;;;;;;;;;4967434;28;20031;-81
2023/04/16 12:08:12;;;;;;;5.15;2.00;;;;;;;;;;4942035;29;20027;-81
2023/04/16 12:10:54;;;;;;;2.85;1.42;;;;;;;;;;4957570;29;20031;-81
2023/04/16 12:13:22;;;;;;;;;;;;;;;;;;4943748;29;20141;-80
2023/04/16 12:15:50;;;;;;;2.05;1.48;;;;;;;;;;4954430;29;20262;-80
2023/04/16 12:18:16;;;;;;;4.15;1.70;;;;;;;;;;4941690;29;20086;-81
2023/04/16 12:20:43;;;;;;;4.03;1.30;;;;;;;;;;4942988;29;20100;-82
2023/04/16 12:23:12;;;;;;;2.13;0.95;;;;;;;;;;4940227;29;20051;-81
2023/04/16 12:25:42;;;;;;;1.73;1.17;;;;;;;;;;4945212;29;20035;-80
2023/04/16 12:28:10;;;;;;;7.15;2.13;;;;;;;;;;4957380;29;20035;-81
2023/04/16 12:30:48;;;;;;;4.95;1.70;;;;;;;;;;4942812;29;20043;-81
2023/04/16 12:33:20;;;;;;;5.63;1.80;;;;;;;;;;4939305;29;20368;-81
2023/04/16 12:35:46;;;;;;;2.47;1.42;;;;;;;;;;4939755;29;20331;-81
2023/04/16 12:38:13;;;;;;;3.35;1.52;;;;;;;;;;4940361;29;20062;-82
2023/04/16 12:40:42;;;;;;;3.08;1.50;;;;;;;;;;4936513;29;20069;-81
2023/04/16 12:43:09;;;;;;;3.30;1.40;;;;;;;;;;4940953;29;20038;-81
2023/04/16 12:45:35;;;;;;;6.47;2.20;;;;;;;;;;4954708;29;20039;-81
2023/04/16 12:48:21;;;;;;;2.47;1.20;;;;;;;;;;4940372;29;20445;-81
2023/04/16 12:50:47;;;;;;;4.55;1.73;;;;;;;;;;4945969;29;20023;-81
2023/04/16 12:53:13;;;;;;;3.33;1.70;;;;;;;;;;4955328;29;20027;-81
2023/04/16 12:55:39;;;;;;;3.92;1.63;;;;;;;;;;4947058;29;20086;-81
2023/04/16 12:58:05;;;;;;;5.18;2.30;;;;;;;;;;4946512;29;20062;-80
2023/04/16 13:00:31;;;;;;;3.72;2.13;;;;;;;;;;4953331;28;20055;-80
2023/04/16 13:02:58;;;;;;;5.00;2.20;;;;;;;;;;4941113;29;20024;-80
2023/04/16 13:05:24;;;;;;;4.28;1.85;;;;;;;;;;4940508;29;20032;-80
2023/04/16 13:07:50;;;;;;;2.53;1.70;;;;;;;;;;4940954;29;20431;-80
2023/04/16 13:10:16;;;;;;;4.32;1.70;;;;;;;;;;4940674;29;20016;-81
2023/04/16 13:12:42;;;;;;;3.35;1.65;;;;;;;;;;4940761;29;20107;-81
2023/04/16 13:15:09;;;;;;;3.30;1.40;;;;;;;;;;4932496;29;20080;-80
2023/04/16 13:17:35;;;;;;;2.38;1.33;;;;;;;;;;4926997;29;20156;-80
2023/04/16 13:20:02;;;;;;;1.92;1.33;;;;;;;;;;4962519;28;20024;-80
2023/04/16 13:22:28;;;;;;;3.55;1.52;;;;;;;;;;4941054;29;20035;-82
2023/04/16 13:24:54;;;;;;;3.72;1.63;;;;;;;;;;4947795;29;20034;-80
2023/04/16 13:27:20;;;;;;;1.67;1.23;;;;;;;;;;4948466;29;20023;-80
2023/04/16 13:29:46;;;;;;;4.70;1.25;;;;;;;;;;4947878;29;20031;-80
2023/04/16 13:32:13;;;;;;;4.43;1.92;;;;;;;;;;4940677;29;20070;-80
2023/04/16 13:34:39;;;;;;;4.13;2.00;;;;;;;;;;4943712;29;20042;-80
2023/04/16 13:37:05;;;;;;;5.15;2.00;;;;;;;;;;4945552;29;20023;-80
2023/04/16 13:39:31;;;;;;;3.22;1.60;;;;;;;;;;4946876;29;20027;-80
2023/04/16 13:41:57;;;;;;;6.00;1.83;;;;;;;;;;4951067;29;20089;-80
2023/04/16 13:44:25;;;;;;;1.77;1.00;;;;;;;;;;4938503;29;20047;-79
2023/04/16 13:46:52;;;;;;;3.00;0.82;;;;;;;;;;4940235;29;20054;-80
2023/04/16 13:49:18;;;;;;;1.63;1.05;;;;;;;;;;4940113;29;20027;-80
2023/04/16 13:51:45;;;;;;;4.15;1.50;;;;;;;;;;4940312;29;20038;-80
2023/04/16 13:54:12;;;;;;;4.60;2.00;;;;;;;;;;4940428;29;20024;-80
2023/04/16 13:56:38;;;;;;;3.67;1.70;;;;;;;;;;4940226;29;20063;-80
2023/04/16 13:59:04;;;;;;;3.58;1.02;;;;;;;;;;4940157;29;20371;-80
2023/04/16 14:01:30;;;;;;;3.05;1.42;;;;;;;;;;4940104;29;20032;-80
2023/04/16 14:03:58;;;;;;;3.03;1.10;;;;;;;;;;4940067;29;20398;-80
2023/04/16 14:06:24;;;;;;;2.65;1.35;;;;;;;;;;4940028;29;20024;-80
2023/04/16 14:08:50;;;;;;;4.25;1.30;;;;;;;;;;4940056;29;20024;-80
2023/04/16 14:11:16;;;;;;;3.40;1.20;;;;;;;;;;4940257;29;20024;-80
2023/04/16 14:13:42;;;;;;;3.10;1.13;;;;;;;;;;4940063;29;20053;-81
2023/04/16 14:16:09;;;;;;;3.60;1.65;;;;;;;;;;4939968;29;20028;-80
2023/04/16 14:18:39;;;;;;;1.42;1.05;;;;;;;;;;4939798;29;20030;-80
2023/04/16 14:21:05;;;;;;;4.97;1.33;;;;;;;;;;4939776;29;20023;-80
2023/04/16 14:23:32;;;;;;;2.67;1.15;;;;;;;;;;4939598;29;20052;-80
2023/04/16 14:25:58;;;;;;;1.58;1.00;;;;;;;;;;4939764;29;20032;-81
2023/04/16 14:28:24;;;;;;;1.20;0.85;;;;;;;;;;4946970;29;20039;-77
2023/04/16 14:30:50;;;;;;;2.60;1.00;;;;;;;;;;4938462;29;20330;-78
2023/04/16 14:33:16;;;;;;;2.13;1.00;;;;;;;;;;4938212;29;20072;-79
2023/04/16 14:35:42;;;;;;;4.10;1.10;;;;;;;;;;4931164;29;20038;-80